sensor_id;sensor_type;location;lat;lon;timestamp;temperature;humidity
12967;DHT22;6548;49.996;8.238;2024-02-04T06:17:41;9.50;99.90
12967;DHT22;6548;49.996;8.238;2024-02-04T06:20:07;9.50;99.90
12967;DHT22;6548;49.996;8.238;2024-02-04T06:22:36;9.60;99.90
12967;DHT22;6548;49.996;8.238;2024-02-04T06:25:03;9.60;99.90
12967;DHT22;6548;49.996;8.238;2024-02-04T06:27:29;9.60;99.90
12967;DHT22;6548;49.996;8.238;2024-02-04T06:29:55;9.60;99.90
12967;DHT22;6548;49.996;8.238;2024-02-04T06:32:21;9.60;99.90
12967;DHT22;6548;49.996;8.238;2024-02-04T06:34:46;9.60;99.90
12967;DHT22;6548;49.996;8.238;2024-02-04T06:37:12;9.60;99.90
12967;DHT22;6548;49.996;8.238;2024-02-04T06:39:38;9.60;99.90
12967;DHT22;6548;49.996;8.238;2024-02-04T06:42:04;9.60;99.90
12967;DHT22;6548;49.996;8.238;2024-02-04T06:44:29;9.60;99.90
12967;DHT22;6548;49.996;8.238;2024-02-04T06:46:55;9.60;99.90
12967;DHT22;6548;49.996;8.238;2024-02-04T06:49:20;9.70;99.90
12967;DHT22;6548;49.996;8.238;2024-02-04T06:51:46;9.70;99.90
12967;DHT22;6548;49.996;8.238;2024-02-04T06:54:13;9.70;99.90
12967;DHT22;6548;49.996;8.238;2024-02-04T06:56:39;9.70;99.90
12967;DHT22;6548;49.996;8.238;2024-02-04T06:59:04;9.70;99.90
12967;DHT22;6548;49.996;8.238;2024-02-04T07:01:30;9.70;99.90
12967;DHT22;6548;49.996;8.238;2024-02-04T07:03:56;9.70;99.90
12967;DHT22;6548;49.996;8.238;2024-02-04T07:06:21;9.70;99.90
12967;DHT22;6548;49.996;8.238;2024-02-04T07:08:46;9.70;99.90
12967;DHT22;6548;49.996;8.238;2024-02-04T07:11:12;9.70;99.90
12967;DHT22;6548;49.996;8.238;2024-02-04T07:13:37;9.70;99.90
12967;DHT22;6548;49.996;8.238;2024-02-04T07:16:03;9.70;99.90
12967;DHT22;6548;49.996;8.238;2024-02-04T07:18:29;9.70;99.90
12967;DHT22;6548;49.996;8.238;2024-02-04T07:20:54;9.70;99.90
12967;DHT22;6548;49.996;8.238;2024-02-04T07:23:20;9.60;99.90
12967;DHT22;6548;49.996;8.238;2024-02-04T07:25:47;9.60;99.90
12967;DHT22;6548;49.996;8.238;2024-02-04T07:28:12;9.60;99.90
12967;DHT22;6548;49.996;8.238;2024-02-04T07:30:38;9.60;99.90
12967;DHT22;6548;49.996;8.238;2024-02-04T07:33:03;9.60;99.90
12967;DHT22;6548;49.996;8.238;2024-02-04T07:35:29;9.60;99.90
12967;DHT22;6548;49.996;8.238;2024-02-04T07:37:55;9.70;99.90
12967;DHT22;6548;49.996;8.238;2024-02-04T07:40:20;9.70;99.90
12967;DHT22;6548;49.996;8.238;2024-02-04T07:42:46;9.70;99.90
12967;DHT22;6548;49.996;8.238;2024-02-04T07:45:12;9.70;99.90
12967;DHT22;6548;49.996;8.238;2024-02-04T07:47:37;9.70;99.90
12967;DHT22;6548;49.996;8.238;2024-02-04T07:50:03;9.70;99.90
12967;DHT22;6548;49.996;8.238;2024-02-04T07:52:29;9.70;99.90
12967;DHT22;6548;49.996;8.238;2024-02-04T07:54:54;9.70;99.90
12967;DHT22;6548;49.996;8.238;2024-02-04T07:57:20;9.70;99.90
12967;DHT22;6548;49.996;8.238;2024-02-04T07:59:45;9.70;99.90
12967;DHT22;6548;49.996;8.238;2024-02-04T08:02:11;9.60;99.90
12967;DHT22;6548;49.996;8.238;2024-02-04T08:04:39;9.70;99.90
12967;DHT22;6548;49.996;8.238;2024-02-04T08:07:05;9.70;99.90
12967;DHT22;6548;49.996;8.238;2024-02-04T08:09:30;9.70;99.90
12967;DHT22;6548;49.996;8.238;2024-02-04T08:11:55;9.70;99.90
12967;DHT22;6548;49.996;8.238;2024-02-04T08:14:22;9.70;99.90
12967;DHT22;6548;49.996;8.238;2024-02-04T08:16:48;9.70;99.90
12967;DHT22;6548;49.996;8.238;2024-02-04T08:19:13;9.80;99.90
12967;DHT22;6548;49.996;8.238;2024-02-04T08:21:39;9.80;99.90
12967;DHT22;6548;49.996;8.238;2024-02-04T08:24:05;9.80;99.90
12967;DHT22;6548;49.996;8.238;2024-02-04T08:26:31;9.80;99.90
12967;DHT22;6548;49.996;8.238;2024-02-04T08:28:56;9.80;99.90
12967;DHT22;6548;49.996;8.238;2024-02-04T08:31:22;9.80;99.90
12967;DHT22;6548;49.996;8.238;2024-02-04T08:33:47;9.80;99.90
12967;DHT22;6548;49.996;8.238;2024-02-04T08:36:13;9.80;99.90
12967;DHT22;6548;49.996;8.238;2024-02-04T08:38:38;9.80;99.90
12967;DHT22;6548;49.996;8.238;2024-02-04T08:41:04;9.80;99.90
12967;DHT22;6548;49.996;8.238;2024-02-04T08:43:29;9.80;99.90
12967;DHT22;6548;49.996;8.238;2024-02-04T08:45:55;9.80;99.90
12967;DHT22;6548;49.996;8.238;2024-02-04T08:48:21;9.90;99.90
12967;DHT22;6548;49.996;8.238;2024-02-04T08:50:46;9.90;99.90
12967;DHT22;6548;49.996;8.238;2024-02-04T08:53:12;9.90;99.90
12967;DHT22;6548;49.996;8.238;2024-02-04T08:55:40;10.00;99.90
12967;DHT22;6548;49.996;8.238;2024-02-04T08:58:05;10.00;99.90
12967;DHT22;6548;49.996;8.238;2024-02-04T09:00:34;10.10;99.90
12967;DHT22;6548;49.996;8.238;2024-02-04T09:02:59;10.10;99.90
12967;DHT22;6548;49.996;8.238;2024-02-04T09:05:25;10.10;99.90
12967;DHT22;6548;49.996;8.238;2024-02-04T09:07:50;10.20;99.90
12967;DHT22;6548;49.996;8.238;2024-02-04T09:10:16;10.20;99.90
12967;DHT22;6548;49.996;8.238;2024-02-04T09:12:42;10.20;99.90
12967;DHT22;6548;49.996;8.238;2024-02-04T09:15:08;10.20;99.90
12967;DHT22;6548;49.996;8.238;2024-02-04T09:17:33;10.30;99.90
12967;DHT22;6548;49.996;8.238;2024-02-04T09:19:59;10.30;99.90
12967;DHT22;6548;49.996;8.238;2024-02-04T09:22:25;10.30;99.90
12967;DHT22;6548;49.996;8.238;2024-02-04T09:24:54;10.30;99.90
12967;DHT22;6548;49.996;8.238;2024-02-04T09:27:22;10.40;99.90
12967;DHT22;6548;49.996;8.238;2024-02-04T09:29:47;10.50;99.90
12967;DHT22;6548;49.996;8.238;2024-02-04T09:32:13;10.70;99.90
12967;DHT22;6548;49.996;8.238;2024-02-04T09:34:38;10.80;99.90
12967;DHT22;6548;49.996;8.238;2024-02-04T09:37:04;10.90;99.90
12967;DHT22;6548;49.996;8.238;2024-02-04T09:39:33;10.80;99.90
12967;DHT22;6548;49.996;8.238;2024-02-04T09:42:01;10.90;99.90
12967;DHT22;6548;49.996;8.238;2024-02-04T09:44:27;10.90;99.90
12967;DHT22;6548;49.996;8.238;2024-02-04T09:46:53;11.00;99.90
12967;DHT22;6548;49.996;8.238;2024-02-04T09:49:19;11.00;99.90
12967;DHT22;6548;49.996;8.238;2024-02-04T09:51:45;11.00;99.90
12967;DHT22;6548;49.996;8.238;2024-02-04T09:54:11;11.00;99.90
12967;DHT22;6548;49.996;8.238;2024-02-04T09:56:42;10.90;99.90
12967;DHT22;6548;49.996;8.238;2024-02-04T09:59:08;10.80;99.90
12967;DHT22;6548;49.996;8.238;2024-02-04T10:01:35;10.90;99.90
12967;DHT22;6548;49.996;8.238;2024-02-04T10:04:01;10.80;99.90
12967;DHT22;6548;49.996;8.238;2024-02-04T10:06:27;10.80;99.90
12967;DHT22;6548;49.996;8.238;2024-02-04T10:08:53;10.80;99.90
12967;DHT22;6548;49.996;8.238;2024-02-04T10:11:22;10.80;99.90
12967;DHT22;6548;49.996;8.238;2024-02-04T10:13:49;10.70;99.90
12967;DHT22;6548;49.996;8.238;2024-02-04T10:16:18;10.80;99.90
12967;DHT22;6548;49.996;8.238;2024-02-04T10:18:48;10.70;99.90
12967;DHT22;6548;49.996;8.238;2024-02-04T10:21:21;10.60;99.90
12967;DHT22;6548;49.996;8.238;2024-02-04T10:23:50;10.60;99.90
12967;DHT22;6548;49.996;8.238;2024-02-04T10:26:18;10.60;99.90
12967;DHT22;6548;49.996;8.238;2024-02-04T10:28:47;10.60;99.90
12967;DHT22;6548;49.996;8.238;2024-02-04T10:31:13;10.60;99.90
12967;DHT22;6548;49.996;8.238;2024-02-04T10:33:42;10.60;99.90
12967;DHT22;6548;49.996;8.238;2024-02-04T10:36:08;10.70;99.90
12967;DHT22;6548;49.996;8.238;2024-02-04T10:38:36;10.70;99.90
12967;DHT22;6548;49.996;8.238;2024-02-04T10:41:02;10.80;99.90
12967;DHT22;6548;49.996;8.238;2024-02-04T10:43:34;10.80;99.90
12967;DHT22;6548;49.996;8.238;2024-02-04T10:46:19;10.80;99.90
12967;DHT22;6548;49.996;8.238;2024-02-04T10:48:52;11.30;99.90
12967;DHT22;6548;49.996;8.238;2024-02-04T10:51:24;11.40;99.90
12967;DHT22;6548;49.996;8.238;2024-02-04T10:53:54;11.90;99.90
12967;DHT22;6548;49.996;8.238;2024-02-04T10:56:32;12.70;99.90
12967;DHT22;6548;49.996;8.238;2024-02-04T10:58:59;12.80;99.90
12967;DHT22;6548;49.996;8.238;2024-02-04T11:01:26;13.10;99.90
12967;DHT22;6548;49.996;8.238;2024-02-04T11:03:55;12.30;99.90
12967;DHT22;6548;49.996;8.238;2024-02-04T11:06:23;11.80;99.90
12967;DHT22;6548;49.996;8.238;2024-02-04T11:08:50;11.40;99.90
12967;DHT22;6548;49.996;8.238;2024-02-04T11:11:18;12.60;99.90
12967;DHT22;6548;49.996;8.238;2024-02-04T11:13:45;12.50;99.90
12967;DHT22;6548;49.996;8.238;2024-02-04T11:19:11;14.00;99.90
12967;DHT22;6548;49.996;8.238;2024-02-04T11:22:06;12.60;99.90
12967;DHT22;6548;49.996;8.238;2024-02-04T11:24:54;13.20;99.90
12967;DHT22;6548;49.996;8.238;2024-02-04T11:27:25;14.70;99.90
12967;DHT22;6548;49.996;8.238;2024-02-04T11:29:51;13.50;99.90
12967;DHT22;6548;49.996;8.238;2024-02-04T11:32:17;12.70;99.90
12967;DHT22;6548;49.996;8.238;2024-02-04T11:34:46;12.20;99.90
12967;DHT22;6548;49.996;8.238;2024-02-04T11:37:19;12.00;99.90
12967;DHT22;6548;49.996;8.238;2024-02-04T11:39:52;11.60;99.90
12967;DHT22;6548;49.996;8.238;2024-02-04T11:42:18;11.50;99.90
12967;DHT22;6548;49.996;8.238;2024-02-04T11:44:44;11.40;99.90
12967;DHT22;6548;49.996;8.238;2024-02-04T11:47:11;11.40;99.90
12967;DHT22;6548;49.996;8.238;2024-02-04T11:49:37;11.40;99.90
12967;DHT22;6548;49.996;8.238;2024-02-04T11:52:02;11.40;99.90
12967;DHT22;6548;49.996;8.238;2024-02-04T11:54:29;11.40;99.90
12967;DHT22;6548;49.996;8.238;2024-02-04T11:56:58;11.40;99.90
12967;DHT22;6548;49.996;8.238;2024-02-04T11:59:24;11.40;99.90
12967;DHT22;6548;49.996;8.238;2024-02-04T12:01:55;11.40;99.90
12967;DHT22;6548;49.996;8.238;2024-02-04T12:04:25;11.50;99.90
12967;DHT22;6548;49.996;8.238;2024-02-04T12:06:53;11.60;99.90
12967;DHT22;6548;49.996;8.238;2024-02-04T12:09:19;11.40;99.90
12967;DHT22;6548;49.996;8.238;2024-02-04T12:11:45;11.60;99.90
12967;DHT22;6548;49.996;8.238;2024-02-04T12:14:10;12.10;99.90
12967;DHT22;6548;49.996;8.238;2024-02-04T12:16:36;12.20;99.90
12967;DHT22;6548;49.996;8.238;2024-02-04T12:19:02;12.20;99.90
12967;DHT22;6548;49.996;8.238;2024-02-04T12:21:31;12.20;99.90
12967;DHT22;6548;49.996;8.238;2024-02-04T12:23:58;12.20;99.90
12967;DHT22;6548;49.996;8.238;2024-02-04T12:26:24;12.20;99.90
12967;DHT22;6548;49.996;8.238;2024-02-04T12:28:50;12.50;99.90
12967;DHT22;6548;49.996;8.238;2024-02-04T12:31:17;12.50;99.90
12967;DHT22;6548;49.996;8.238;2024-02-04T12:33:53;12.30;99.90
12967;DHT22;6548;49.996;8.238;2024-02-04T12:36:31;12.50;99.90
12967;DHT22;6548;49.996;8.238;2024-02-04T12:38:58;12.50;99.90
12967;DHT22;6548;49.996;8.238;2024-02-04T12:41:26;12.30;99.90
12967;DHT22;6548;49.996;8.238;2024-02-04T12:43:59;12.10;99.90
12967;DHT22;6548;49.996;8.238;2024-02-04T12:46:33;11.90;99.90
12967;DHT22;6548;49.996;8.238;2024-02-04T12:48:59;11.90;99.90
12967;DHT22;6548;49.996;8.238;2024-02-04T12:51:28;11.70;99.90
12967;DHT22;6548;49.996;8.238;2024-02-04T12:54:06;11.70;99.90
12967;DHT22;6548;49.996;8.238;2024-02-04T12:56:52;11.70;99.90
12967;DHT22;6548;49.996;8.238;2024-02-04T12:59:29;11.80;99.90
12967;DHT22;6548;49.996;8.238;2024-02-04T13:02:08;12.00;99.90
12967;DHT22;6548;49.996;8.238;2024-02-04T13:04:35;12.00;99.90
12967;DHT22;6548;49.996;8.238;2024-02-04T13:07:09;12.20;99.90
12967;DHT22;6548;49.996;8.238;2024-02-04T13:09:59;12.00;99.90
12967;DHT22;6548;49.996;8.238;2024-02-04T13:12:28;12.00;99.90
12967;DHT22;6548;49.996;8.238;2024-02-04T13:14:53;11.90;99.90
12967;DHT22;6548;49.996;8.238;2024-02-04T13:17:19;11.90;99.90
12967;DHT22;6548;49.996;8.238;2024-02-04T13:19:45;11.90;99.90
12967;DHT22;6548;49.996;8.238;2024-02-04T13:22:13;12.00;99.90
12967;DHT22;6548;49.996;8.238;2024-02-04T13:24:39;12.10;99.90
12967;DHT22;6548;49.996;8.238;2024-02-04T13:27:05;12.00;99.90
12967;DHT22;6548;49.996;8.238;2024-02-04T13:29:36;11.90;99.90
12967;DHT22;6548;49.996;8.238;2024-02-04T13:32:02;11.80;99.90
12967;DHT22;6548;49.996;8.238;2024-02-04T13:34:28;11.70;99.90
12967;DHT22;6548;49.996;8.238;2024-02-04T13:36:54;11.70;99.90
12967;DHT22;6548;49.996;8.238;2024-02-04T13:39:19;11.60;99.90
12967;DHT22;6548;49.996;8.238;2024-02-04T13:41:46;11.60;99.90
12967;DHT22;6548;49.996;8.238;2024-02-04T13:44:12;11.70;99.90
12967;DHT22;6548;49.996;8.238;2024-02-04T13:46:38;11.70;99.90
12967;DHT22;6548;49.996;8.238;2024-02-04T13:49:07;11.70;99.90
12967;DHT22;6548;49.996;8.238;2024-02-04T13:51:33;11.70;99.90
12967;DHT22;6548;49.996;8.238;2024-02-04T13:53:58;11.70;99.90
12967;DHT22;6548;49.996;8.238;2024-02-04T13:56:24;11.70;99.90
12967;DHT22;6548;49.996;8.238;2024-02-04T13:58:50;11.70;99.90
12967;DHT22;6548;49.996;8.238;2024-02-04T14:01:16;11.70;99.90
12967;DHT22;6548;49.996;8.238;2024-02-04T14:03:43;11.70;99.90
12967;DHT22;6548;49.996;8.238;2024-02-04T14:06:09;11.70;99.90
12967;DHT22;6548;49.996;8.238;2024-02-04T14:08:34;11.70;99.90
12967;DHT22;6548;49.996;8.238;2024-02-04T14:11:00;11.70;99.90
12967;DHT22;6548;49.996;8.238;2024-02-04T14:13:25;11.70;99.90
12967;DHT22;6548;49.996;8.238;2024-02-04T14:15:51;11.70;99.90
12967;DHT22;6548;49.996;8.238;2024-02-04T14:18:17;11.80;99.90
12967;DHT22;6548;49.996;8.238;2024-02-04T14:20:43;11.80;99.90
12967;DHT22;6548;49.996;8.238;2024-02-04T14:23:08;11.80;99.90
12967;DHT22;6548;49.996;8.238;2024-02-04T14:25:34;11.80;99.90
12967;DHT22;6548;49.996;8.238;2024-02-04T14:28:00;11.80;99.90
12967;DHT22;6548;49.996;8.238;2024-02-04T14:30:25;11.90;99.90
12967;DHT22;6548;49.996;8.238;2024-02-04T14:32:51;11.90;99.90
12967;DHT22;6548;49.996;8.238;2024-02-04T14:35:16;11.80;99.90
12967;DHT22;6548;49.996;8.238;2024-02-04T14:37:42;11.80;99.90
12967;DHT22;6548;49.996;8.238;2024-02-04T14:40:08;11.90;99.90
12967;DHT22;6548;49.996;8.238;2024-02-04T14:42:34;11.90;99.90
12967;DHT22;6548;49.996;8.238;2024-02-04T14:45:00;11.90;99.90
12967;DHT22;6548;49.996;8.238;2024-02-04T14:47:26;11.90;99.90
12967;DHT22;6548;49.996;8.238;2024-02-04T14:49:53;11.80;99.90
12967;DHT22;6548;49.996;8.238;2024-02-04T14:52:19;11.80;99.90
12967;DHT22;6548;49.996;8.238;2024-02-04T14:54:44;11.80;99.90
12967;DHT22;6548;49.996;8.238;2024-02-04T14:57:10;11.80;99.90
12967;DHT22;6548;49.996;8.238;2024-02-04T14:59:35;11.80;99.90
12967;DHT22;6548;49.996;8.238;2024-02-04T15:02:03;11.80;99.90
12967;DHT22;6548;49.996;8.238;2024-02-04T15:04:30;11.70;99.90
12967;DHT22;6548;49.996;8.238;2024-02-04T15:06:57;11.70;99.90
12967;DHT22;6548;49.996;8.238;2024-02-04T15:09:23;11.70;99.90
12967;DHT22;6548;49.996;8.238;2024-02-04T15:11:48;11.70;99.90
12967;DHT22;6548;49.996;8.238;2024-02-04T15:14:14;11.70;99.90
12967;DHT22;6548;49.996;8.238;2024-02-04T15:16:42;11.70;99.90
12967;DHT22;6548;49.996;8.238;2024-02-04T15:19:08;11.70;99.90
12967;DHT22;6548;49.996;8.238;2024-02-04T15:21:34;11.70;99.90
12967;DHT22;6548;49.996;8.238;2024-02-04T15:24:00;11.70;99.90
12967;DHT22;6548;49.996;8.238;2024-02-04T15:26:33;11.70;99.90
12967;DHT22;6548;49.996;8.238;2024-02-04T15:29:03;11.80;99.90
12967;DHT22;6548;49.996;8.238;2024-02-04T15:31:29;11.70;99.90
12967;DHT22;6548;49.996;8.238;2024-02-04T15:33:55;11.70;99.90
12967;DHT22;6548;49.996;8.238;2024-02-04T15:36:21;11.70;99.90
12967;DHT22;6548;49.996;8.238;2024-02-04T15:38:47;11.70;99.90
12967;DHT22;6548;49.996;8.238;2024-02-04T15:41:13;11.70;99.90
12967;DHT22;6548;49.996;8.238;2024-02-04T15:43:38;11.70;99.90
12967;DHT22;6548;49.996;8.238;2024-02-04T15:46:07;11.60;99.90
12967;DHT22;6548;49.996;8.238;2024-02-04T15:48:38;11.60;99.90
12967;DHT22;6548;49.996;8.238;2024-02-04T15:51:04;11.50;99.90
12967;DHT22;6548;49.996;8.238;2024-02-04T15:53:31;11.50;99.90
12967;DHT22;6548;49.996;8.238;2024-02-04T15:55:57;11.50;99.90
12967;DHT22;6548;49.996;8.238;2024-02-04T15:58:25;11.50;99.90
12967;DHT22;6548;49.996;8.238;2024-02-04T16:00:53;11.50;99.90
12967;DHT22;6548;49.996;8.238;2024-02-04T16:03:19;11.50;99.90
12967;DHT22;6548;49.996;8.238;2024-02-04T16:05:45;11.40;99.90
12967;DHT22;6548;49.996;8.238;2024-02-04T16:08:12;11.40;99.90
12967;DHT22;6548;49.996;8.238;2024-02-04T16:10:37;11.40;99.90
12967;DHT22;6548;49.996;8.238;2024-02-04T16:13:07;11.40;99.90
12967;DHT22;6548;49.996;8.238;2024-02-04T16:15:37;11.40;99.90
12967;DHT22;6548;49.996;8.238;2024-02-04T16:18:04;11.40;99.90
12967;DHT22;6548;49.996;8.238;2024-02-04T16:20:31;11.40;99.90
12967;DHT22;6548;49.996;8.238;2024-02-04T16:22:57;11.40;99.90
12967;DHT22;6548;49.996;8.238;2024-02-04T16:25:23;11.40;99.90
12967;DHT22;6548;49.996;8.238;2024-02-04T16:27:54;11.40;99.90
12967;DHT22;6548;49.996;8.238;2024-02-04T16:30:20;11.40;99.90
12967;DHT22;6548;49.996;8.238;2024-02-04T16:32:46;11.40;99.90
12967;DHT22;6548;49.996;8.238;2024-02-04T16:35:12;11.40;99.90
12967;DHT22;6548;49.996;8.238;2024-02-04T16:37:38;11.30;99.90
12967;DHT22;6548;49.996;8.238;2024-02-04T16:40:03;11.30;99.90
12967;DHT22;6548;49.996;8.238;2024-02-04T16:42:30;11.30;99.90
12967;DHT22;6548;49.996;8.238;2024-02-04T16:45:01;11.30;99.90
12967;DHT22;6548;49.996;8.238;2024-02-04T16:47:27;11.30;99.90
12967;DHT22;6548;49.996;8.238;2024-02-04T16:49:52;11.30;99.90
12967;DHT22;6548;49.996;8.238;2024-02-04T16:52:18;11.20;99.90
12967;DHT22;6548;49.996;8.238;2024-02-04T16:55:08;11.30;99.90
12967;DHT22;6548;49.996;8.238;2024-02-04T16:59:00;11.20;99.90
12967;DHT22;6548;49.996;8.238;2024-02-04T17:12:36;11.20;99.90
12967;DHT22;6548;49.996;8.238;2024-02-04T17:15:02;11.20;99.90
12967;DHT22;6548;49.996;8.238;2024-02-04T17:17:28;11.20;99.90
12967;DHT22;6548;49.996;8.238;2024-02-04T17:20:10;11.10;99.90
12967;DHT22;6548;49.996;8.238;2024-02-04T17:22:43;11.10;99.90
12967;DHT22;6548;49.996;8.238;2024-02-04T17:25:11;11.10;99.90
12967;DHT22;6548;49.996;8.238;2024-02-04T17:27:41;11.10;99.90
12967;DHT22;6548;49.996;8.238;2024-02-04T17:30:09;11.10;99.90
12967;DHT22;6548;49.996;8.238;2024-02-04T17:32:40;11.10;99.90
12967;DHT22;6548;49.996;8.238;2024-02-04T17:35:07;11.10;99.90
12967;DHT22;6548;49.996;8.238;2024-02-04T17:37:34;11.10;99.90
12967;DHT22;6548;49.996;8.238;2024-02-04T17:40:00;11.10;99.90
12967;DHT22;6548;49.996;8.238;2024-02-04T17:42:26;11.00;99.90
12967;DHT22;6548;49.996;8.238;2024-02-04T17:44:55;11.10;99.90
12967;DHT22;6548;49.996;8.238;2024-02-04T17:47:22;11.00;99.90
12967;DHT22;6548;49.996;8.238;2024-02-04T17:49:51;11.00;99.90
12967;DHT22;6548;49.996;8.238;2024-02-04T17:52:17;11.00;99.90
12967;DHT22;6548;49.996;8.238;2024-02-04T17:54:43;11.00;99.90
12967;DHT22;6548;49.996;8.238;2024-02-04T17:57:08;11.00;99.90
12967;DHT22;6548;49.996;8.238;2024-02-04T17:59:35;11.00;99.90
12967;DHT22;6548;49.996;8.238;2024-02-04T18:02:01;10.90;99.90
12967;DHT22;6548;49.996;8.238;2024-02-04T18:04:26;10.90;99.90
12967;DHT22;6548;49.996;8.238;2024-02-04T18:06:52;10.90;99.90
12967;DHT22;6548;49.996;8.238;2024-02-04T18:09:17;10.90;99.90
12967;DHT22;6548;49.996;8.238;2024-02-04T18:11:43;10.90;99.90
12967;DHT22;6548;49.996;8.238;2024-02-04T18:14:08;10.90;99.90
12967;DHT22;6548;49.996;8.238;2024-02-04T18:16:34;10.80;99.90
12967;DHT22;6548;49.996;8.238;2024-02-04T18:18:59;10.90;99.90
12967;DHT22;6548;49.996;8.238;2024-02-04T18:21:26;10.90;99.90
12967;DHT22;6548;49.996;8.238;2024-02-04T18:23:52;10.90;99.90
12967;DHT22;6548;49.996;8.238;2024-02-04T18:28:51;10.80;99.90
12967;DHT22;6548;49.996;8.238;2024-02-04T18:31:17;10.80;99.90
12967;DHT22;6548;49.996;8.238;2024-02-04T18:33:43;10.80;99.90
12967;DHT22;6548;49.996;8.238;2024-02-04T18:36:10;10.70;99.90
12967;DHT22;6548;49.996;8.238;2024-02-04T18:38:36;10.80;99.90
12967;DHT22;6548;49.996;8.238;2024-02-04T18:41:02;10.70;99.90
12967;DHT22;6548;49.996;8.238;2024-02-04T18:43:29;10.70;99.90
12967;DHT22;6548;49.996;8.238;2024-02-04T18:45:55;10.70;99.90
12967;DHT22;6548;49.996;8.238;2024-02-04T18:48:21;10.80;99.90
12967;DHT22;6548;49.996;8.238;2024-02-04T18:50:47;10.70;99.90
12967;DHT22;6548;49.996;8.238;2024-02-04T18:53:13;10.70;99.90
12967;DHT22;6548;49.996;8.238;2024-02-04T18:55:38;10.70;99.90
12967;DHT22;6548;49.996;8.238;2024-02-04T18:58:04;10.80;99.90
12967;DHT22;6548;49.996;8.238;2024-02-04T19:00:31;10.80;99.90
12967;DHT22;6548;49.996;8.238;2024-02-04T19:02:57;10.70;99.90
12967;DHT22;6548;49.996;8.238;2024-02-04T19:05:22;10.80;99.90
12967;DHT22;6548;49.996;8.238;2024-02-04T19:07:48;10.70;99.90
12967;DHT22;6548;49.996;8.238;2024-02-04T19:10:14;10.80;99.90
12967;DHT22;6548;49.996;8.238;2024-02-04T19:12:40;10.80;99.90
12967;DHT22;6548;49.996;8.238;2024-02-04T19:15:08;10.80;99.90
12967;DHT22;6548;49.996;8.238;2024-02-04T19:17:33;10.80;99.90
12967;DHT22;6548;49.996;8.238;2024-02-04T19:20:00;10.80;99.90
12967;DHT22;6548;49.996;8.238;2024-02-04T19:22:27;10.80;99.90
12967;DHT22;6548;49.996;8.238;2024-02-04T19:24:57;10.80;99.90
12967;DHT22;6548;49.996;8.238;2024-02-04T19:27:23;10.80;99.90
12967;DHT22;6548;49.996;8.238;2024-02-04T19:29:48;10.80;99.90
12967;DHT22;6548;49.996;8.238;2024-02-04T19:32:14;10.80;99.90
12967;DHT22;6548;49.996;8.238;2024-02-04T19:34:39;10.70;99.90
12967;DHT22;6548;49.996;8.238;2024-02-04T19:37:05;10.70;99.90
12967;DHT22;6548;49.996;8.238;2024-02-04T19:39:31;10.70;99.90
12967;DHT22;6548;49.996;8.238;2024-02-04T19:41:57;10.70;99.90
12967;DHT22;6548;49.996;8.238;2024-02-04T19:44:24;10.70;99.90
12967;DHT22;6548;49.996;8.238;2024-02-04T19:46:52;10.70;99.90
12967;DHT22;6548;49.996;8.238;2024-02-04T19:49:20;10.70;99.90
12967;DHT22;6548;49.996;8.238;2024-02-04T19:51:45;10.70;99.90
12967;DHT22;6548;49.996;8.238;2024-02-04T19:54:11;10.70;99.90
12967;DHT22;6548;49.996;8.238;2024-02-04T19:56:36;10.80;99.90
12967;DHT22;6548;49.996;8.238;2024-02-04T19:59:02;10.70;99.90
12967;DHT22;6548;49.996;8.238;2024-02-04T20:01:32;10.70;99.90
12967;DHT22;6548;49.996;8.238;2024-02-04T20:04:01;10.70;99.90
12967;DHT22;6548;49.996;8.238;2024-02-04T20:06:26;10.70;99.90
12967;DHT22;6548;49.996;8.238;2024-02-04T20:08:52;10.70;99.90
12967;DHT22;6548;49.996;8.238;2024-02-04T20:14:49;10.70;99.90
12967;DHT22;6548;49.996;8.238;2024-02-04T20:17:14;10.70;99.90
12967;DHT22;6548;49.996;8.238;2024-02-04T20:20:01;10.70;99.90
12967;DHT22;6548;49.996;8.238;2024-02-04T20:22:30;10.70;99.90
12967;DHT22;6548;49.996;8.238;2024-02-04T20:24:58;10.70;99.90
12967;DHT22;6548;49.996;8.238;2024-02-04T20:27:24;10.70;99.90
12967;DHT22;6548;49.996;8.238;2024-02-04T20:29:49;10.70;99.90
12967;DHT22;6548;49.996;8.238;2024-02-04T20:32:15;10.70;99.90
12967;DHT22;6548;49.996;8.238;2024-02-04T20:34:41;10.60;99.90
12967;DHT22;6548;49.996;8.238;2024-02-04T20:37:27;10.70;99.90
12967;DHT22;6548;49.996;8.238;2024-02-04T20:39:54;10.60;99.90
12967;DHT22;6548;49.996;8.238;2024-02-04T20:42:29;10.60;99.90
12967;DHT22;6548;49.996;8.238;2024-02-04T20:44:54;10.60;99.90
12967;DHT22;6548;49.996;8.238;2024-02-04T20:47:20;10.60;99.90
12967;DHT22;6548;49.996;8.238;2024-02-04T20:49:46;10.50;99.90
12967;DHT22;6548;49.996;8.238;2024-02-04T20:52:11;10.50;99.90
12967;DHT22;6548;49.996;8.238;2024-02-04T20:54:39;10.50;99.90
12967;DHT22;6548;49.996;8.238;2024-02-04T20:57:04;10.50;99.90
12967;DHT22;6548;49.996;8.238;2024-02-04T20:59:30;10.50;99.90
12967;DHT22;6548;49.996;8.238;2024-02-04T21:01:55;10.50;99.90
12967;DHT22;6548;49.996;8.238;2024-02-04T21:04:21;10.50;99.90
12967;DHT22;6548;49.996;8.238;2024-02-04T21:06:47;10.50;99.90
12967;DHT22;6548;49.996;8.238;2024-02-04T21:09:12;10.60;99.90
12967;DHT22;6548;49.996;8.238;2024-02-04T21:11:39;10.50;99.90
12967;DHT22;6548;49.996;8.238;2024-02-04T21:14:05;10.50;99.90
12967;DHT22;6548;49.996;8.238;2024-02-04T21:16:30;10.40;99.90
12967;DHT22;6548;49.996;8.238;2024-02-04T21:18:56;10.50;99.90
12967;DHT22;6548;49.996;8.238;2024-02-04T21:21:21;10.50;99.90
12967;DHT22;6548;49.996;8.238;2024-02-04T21:23:47;10.50;99.90
12967;DHT22;6548;49.996;8.238;2024-02-04T21:26:13;10.40;99.90
12967;DHT22;6548;49.996;8.238;2024-02-04T21:28:38;10.40;99.90
12967;DHT22;6548;49.996;8.238;2024-02-04T21:31:10;10.40;99.90
12967;DHT22;6548;49.996;8.238;2024-02-04T21:33:39;10.40;99.90
12967;DHT22;6548;49.996;8.238;2024-02-04T21:36:11;10.40;99.90
12967;DHT22;6548;49.996;8.238;2024-02-04T21:38:40;10.40;99.90
12967;DHT22;6548;49.996;8.238;2024-02-04T21:41:05;10.30;99.90
12967;DHT22;6548;49.996;8.238;2024-02-04T21:43:31;10.30;99.90
12967;DHT22;6548;49.996;8.238;2024-02-04T21:45:57;10.30;99.90
12967;DHT22;6548;49.996;8.238;2024-02-04T21:48:22;10.30;99.90
12967;DHT22;6548;49.996;8.238;2024-02-04T21:50:48;10.40;99.90
12967;DHT22;6548;49.996;8.238;2024-02-04T21:53:14;10.30;99.90
12967;DHT22;6548;49.996;8.238;2024-02-04T21:55:41;10.30;99.90
12967;DHT22;6548;49.996;8.238;2024-02-04T21:58:06;10.30;99.90
12967;DHT22;6548;49.996;8.238;2024-02-04T22:00:34;10.30;99.90
12967;DHT22;6548;49.996;8.238;2024-02-04T22:03:00;10.20;99.90
12967;DHT22;6548;49.996;8.238;2024-02-04T22:05:26;10.20;99.90
12967;DHT22;6548;49.996;8.238;2024-02-04T22:07:54;10.20;99.90
12967;DHT22;6548;49.996;8.238;2024-02-04T22:10:19;10.20;99.90
12967;DHT22;6548;49.996;8.238;2024-02-04T22:12:48;10.20;99.90
12967;DHT22;6548;49.996;8.238;2024-02-04T22:15:13;10.20;99.90
12967;DHT22;6548;49.996;8.238;2024-02-04T22:17:39;10.20;99.90
12967;DHT22;6548;49.996;8.238;2024-02-04T22:20:08;10.20;99.90
12967;DHT22;6548;49.996;8.238;2024-02-04T22:22:34;10.10;99.90
12967;DHT22;6548;49.996;8.238;2024-02-04T22:25:03;10.10;99.90
12967;DHT22;6548;49.996;8.238;2024-02-04T22:27:32;10.10;99.90